Time;durP1;ratioP1;P1;durP2;ratioP2;P2;SDS_P1;SDS_P2;PMS_P1;PMS_P2;Temp;Humidity;BMP_temperature;BMP_pressure;BME280_temperature;BME280_humidity;BME280_pressure;Samples;Min_cycle;Max_cycle;Signal;HPM_P1;HPM_P2
2022/06/23 00:00:36;;;;;;;6.85;2.40;;;;;;;13.69;100.00;97446.03;5114548;28;20384;-77
2022/06/23 00:03:05;;;;;;;3.05;2.53;;;;;;;13.70;100.00;97444.88;5080299;28;20112;-80
2022/06/23 00:05:38;;;;;;;4.28;2.47;;;;;;;13.52;100.00;97435.34;5097721;28;20075;-81
2022/06/23 00:08:09;;;;;;;5.15;2.78;;;;;;;13.57;100.00;97437.06;5096637;28;20066;-79
2022/06/23 00:10:51;;;;;;;5.75;2.45;;;;;;;13.49;100.00;97446.91;5115393;28;20418;-79
2022/06/23 00:13:34;;;;;;;7.32;3.22;;;;;;;13.45;100.00;97435.13;5115504;28;20510;-81
2022/06/23 00:16:04;;;;;;;5.05;2.80;;;;;;;13.36;100.00;97434.44;5096774;28;20063;-81
2022/06/23 00:18:37;;;;;;;5.53;3.05;;;;;;;13.37;100.00;97437.97;5096151;28;20047;-79
2022/06/23 00:21:14;;;;;;;5.47;3.13;;;;;;;13.37;100.00;97433.28;5098793;28;20051;-80
2022/06/23 00:23:46;;;;;;;7.22;2.85;;;;;;;13.52;100.00;97440.78;5096578;28;20379;-81
2022/06/23 00:26:26;;;;;;;5.30;3.00;;;;;;;13.56;100.00;97438.19;5079902;28;20067;-82
2022/06/23 00:29:06;;;;;;;4.80;2.60;;;;;;;13.36;100.00;97442.59;5095614;28;20274;-80
2022/06/23 00:31:38;;;;;;;5.18;2.50;;;;;;;13.43;100.00;97453.69;5114429;28;20496;-81
2022/06/23 00:34:25;;;;;;;5.55;2.97;;;;;;;13.39;100.00;97460.97;5095194;28;20061;-80
2022/06/23 00:37:01;;;;;;;5.53;3.15;;;;;;;13.22;100.00;97465.75;5115228;28;20055;-81
2022/06/23 00:39:34;;;;;;;7.65;3.08;;;;;;;13.04;100.00;97459.69;5098370;28;20052;-81
2022/06/23 00:42:06;;;;;;;11.18;3.47;;;;;;;13.13;100.00;97475.94;5116969;28;20056;-81
2022/06/23 00:44:51;;;;;;;3.75;2.80;;;;;;;13.22;100.00;97460.31;5119843;28;20073;-81
2022/06/23 00:47:27;;;;;;;6.72;2.92;;;;;;;13.06;100.00;97463.69;5115899;28;20048;-81
2022/06/23 00:50:02;;;;;;;5.63;3.10;;;;;;;12.96;100.00;97466.00;5133776;28;20043;-81
2022/06/23 00:52:33;;;;;;;5.07;3.10;;;;;;;12.86;100.00;97464.50;5132677;28;20051;-81
2022/06/23 00:55:13;;;;;;;5.03;3.30;;;;;;;12.78;100.00;97462.63;5134133;28;20039;-80
2022/06/23 00:57:59;;;;;;;3.58;2.85;;;;;;;12.89;100.00;97471.97;5133750;28;20381;-81
2022/06/23 01:00:37;;;;;;;4.85;3.03;;;;;;;12.81;100.00;97469.31;5132829;28;20063;-81
2022/06/23 01:03:06;;;;;;;5.65;2.97;;;;;;;12.80;100.00;97465.03;5093621;28;20062;-80
2022/06/23 01:05:43;;;;;;;6.63;3.13;;;;;;;12.89;100.00;97471.19;5096891;28;20074;-81
2022/06/23 01:08:35;;;;;;;8.63;3.38;;;;;;;12.97;100.00;97470.31;5099294;28;20051;-80
2022/06/23 01:11:16;;;;;;;5.22;2.75;;;;;;;13.06;100.00;97469.13;5123469;27;20051;-81
2022/06/23 01:13:45;;;;;;;3.38;2.50;;;;;;;13.09;100.00;97464.94;5117321;27;20395;-81
2022/06/23 01:16:18;;;;;;;3.97;2.90;;;;;;;13.11;100.00;97481.69;5135162;27;20095;-81
2022/06/23 01:19:04;;;;;;;4.05;2.60;;;;;;;13.05;100.00;97483.81;5117145;27;20058;-81
2022/06/23 01:21:45;;;;;;;3.42;2.80;;;;;;;13.01;100.00;97484.81;5074279;28;20109;-80
2022/06/23 01:24:20;;;;;;;6.38;3.05;;;;;;;13.04;100.00;97484.94;5075774;28;20056;-80
2022/06/23 01:26:59;;;;;;;4.72;3.05;;;;;;;13.03;100.00;97488.78;5076256;28;20112;-80
2022/06/23 01:29:40;;;;;;;3.42;2.78;;;;;;;13.14;100.00;97497.34;5074581;28;20070;-80
2022/06/23 01:32:17;;;;;;;6.10;3.20;;;;;;;13.18;100.00;97498.28;5074527;28;20055;-80
2022/06/23 01:34:54;;;;;;;5.57;3.08;;;;;;;13.26;100.00;97496.59;5092952;28;20064;-81
2022/06/23 01:37:29;;;;;;;5.50;2.72;;;;;;;13.02;100.00;97489.13;5092973;28;20109;-80
2022/06/23 01:39:59;;;;;;;;;;;;;;;13.04;100.00;97486.84;5092904;28;20063;-81
2022/06/23 01:42:49;;;;;;;6.55;3.10;;;;;;;13.02;100.00;97492.63;5091525;28;20453;-80
2022/06/23 01:45:15;;;;;;;3.72;2.72;;;;;;;13.01;100.00;97495.66;5074872;28;20060;-81
2022/06/23 01:47:52;;;;;;;3.38;2.47;;;;;;;12.92;100.00;97493.06;5074026;28;20131;-81
2022/06/23 01:50:28;;;;;;;4.03;2.60;;;;;;;12.77;100.00;97501.00;5092471;28;20136;-82
2022/06/23 01:53:10;;;;;;;;;;;;;;;12.73;100.00;97497.34;5073742;28;20071;-78
2022/06/23 01:56:01;;;;;;;3.17;2.63;;;;;;;12.65;100.00;97496.28;5093426;28;19920;-80
2022/06/23 01:58:41;;;;;;;5.38;3.10;;;;;;;12.32;100.00;97501.66;5075354;28;20060;-81
2022/06/23 02:01:14;;;;;;;6.55;3.38;;;;;;;12.17;100.00;97504.13;5091794;28;20136;-80
2022/06/23 02:03:47;;;;;;;3.97;3.47;;;;;;;12.00;100.00;97515.84;5074950;28;20085;-81
2022/06/23 02:06:24;;;;;;;5.15;3.40;;;;;;;-141.50;100.00;63355.56;5093389;28;20060;-80
2022/06/23 02:09:00;;;;;;;5.70;3.45;;;;;;;-141.50;100.00;63355.56;5075297;28;20051;-81
2022/06/23 02:11:27;;;;;;;8.38;3.50;;;;;;;-141.50;100.00;63355.56;5073968;28;20052;-80
2022/06/23 02:14:11;;;;;;;5.82;3.75;;;;;;;-141.50;100.00;63355.56;5073831;28;20558;-81
2022/06/23 02:17:01;;;;;;;5.30;3.78;;;;;;;-141.50;100.00;63355.56;5094732;28;20751;-81
2022/06/23 02:19:41;;;;;;;6.20;3.72;;;;;;;-141.50;100.00;63355.56;5089494;28;20239;-80
2022/06/23 02:22:38;;;;;;;6.53;3.70;;;;;;;-141.50;100.00;63355.56;5115813;28;20282;-80
2022/06/23 02:25:21;;;;;;;5.28;3.92;;;;;;;-141.50;100.00;63355.56;5098157;28;20051;-82
2022/06/23 02:27:51;;;;;;;4.68;3.95;;;;;;;-141.50;100.00;63355.56;5098558;28;20552;-82
2022/06/23 02:30:31;;;;;;;9.93;4.13;;;;;;;-141.50;100.00;63355.56;5115202;28;20051;-82
2022/06/23 02:33:19;;;;;;;5.35;3.83;;;;;;;-141.50;100.00;63355.56;5122539;28;20059;-80
2022/06/23 02:36:03;;;;;;;8.45;3.60;;;;;;;-141.50;100.00;63355.56;5130588;28;20043;-80
2022/06/23 02:38:31;;;;;;;4.90;3.70;;;;;;;-141.50;100.00;63355.56;5120564;28;20083;-80
2022/06/23 02:41:24;;;;;;;5.18;3.88;;;;;;;-141.50;100.00;63355.56;5097155;28;20047;-80
2022/06/23 02:44:26;;;;;;;7.78;4.35;;;;;;;-141.50;100.00;63355.56;5097819;28;20120;-81
2022/06/23 02:47:08;;;;;;;11.90;3.45;;;;;;;-141.50;100.00;63355.56;5072983;28;20159;-80
2022/06/23 02:49:37;;;;;;;8.57;3.75;;;;;;;-141.50;100.00;63355.56;5107603;28;20052;-80
2022/06/23 02:52:16;;;;;;;6.88;3.63;;;;;;;-141.50;100.00;63355.56;5113946;28;20129;-80
2022/06/23 02:54:58;;;;;;;5.40;3.47;;;;;;;-141.50;100.00;63355.56;5098429;28;20059;-80
2022/06/23 02:57:40;;;;;;;5.57;3.38;;;;;;;-141.50;100.00;63355.56;5115786;28;20451;-82
2022/06/23 03:00:21;;;;;;;7.30;3.50;;;;;;;-141.50;100.00;63355.56;5114834;28;20125;-82
2022/06/23 03:02:48;;;;;;;10.43;3.60;;;;;;;-141.50;100.00;63355.56;5096504;28;20059;-81
2022/06/23 03:05:33;;;;;;;6.95;3.10;;;;;;;-141.50;100.00;63355.56;5116449;28;20346;-79
2022/06/23 03:08:19;;;;;;;8.75;3.50;;;;;;;-141.50;100.00;63355.56;5097115;28;20052;-81
2022/06/23 03:11:17;;;;;;;6.65;3.50;;;;;;;-141.50;100.00;63355.56;5111163;28;20519;-81
2022/06/23 03:13:53;;;;;;;5.03;3.58;;;;;;;-141.50;100.00;63355.56;5069017;27;20062;-82
2022/06/23 03:16:35;;;;;;;5.18;3.30;;;;;;;-141.50;100.00;63355.56;5115824;27;20054;-82
2022/06/23 03:19:02;;;;;;;5.40;3.33;;;;;;;-141.50;100.00;63355.56;5106826;28;20078;-80
2022/06/23 03:21:38;;;;;;;8.05;3.63;;;;;;;-141.50;100.00;63355.56;5075175;28;20059;-80
2022/06/23 03:24:12;;;;;;;8.25;4.03;;;;;;;-141.50;100.00;63355.56;5075415;28;20462;-80
2022/06/23 03:26:50;;;;;;;13.70;4.30;;;;;;;-141.50;100.00;63355.56;5093412;28;20048;-80
2022/06/23 03:29:23;;;;;;;4.30;3.50;;;;;;;-141.50;100.00;63355.56;5093382;28;20056;-81
2022/06/23 03:32:01;;;;;;;4.63;3.70;;;;;;;-141.50;100.00;63355.56;5084290;28;20493;-80
2022/06/23 03:34:35;;;;;;;6.15;3.67;;;;;;;-141.50;100.00;63355.56;5092448;28;20056;-80
2022/06/23 03:37:07;;;;;;;5.78;3.75;;;;;;;-141.50;100.00;63355.56;5075171;28;20309;-79
2022/06/23 03:43:05;;;;;;;4.80;3.45;;;;;;;-141.50;100.00;63355.56;5116178;28;20094;-80
2022/06/23 03:45:39;;;;;;;5.70;3.42;;;;;;;-141.50;100.00;63355.56;5113521;28;20043;-79
2022/06/23 03:48:13;;;;;;;7.63;3.67;;;;;;;-141.50;100.00;63355.56;5113133;28;20048;-81
2022/06/23 03:50:57;;;;;;;9.02;3.53;;;;;;;-141.50;100.00;63355.56;5109110;28;20058;-80
2022/06/23 03:53:32;;;;;;;5.03;3.58;;;;;;;-141.50;100.00;63355.56;5108039;28;20035;-80
2022/06/23 03:56:04;;;;;;;13.55;4.43;;;;;;;-141.50;100.00;63355.56;5107200;28;20048;-81
2022/06/23 03:58:37;;;;;;;11.98;4.03;;;;;;;-141.50;100.00;63355.56;5115973;28;20107;-80
2022/06/23 04:01:16;;;;;;;13.38;4.05;;;;;;;-141.50;100.00;63355.56;5112880;28;20048;-80
2022/06/23 04:03:54;;;;;;;6.07;3.90;;;;;;;-141.50;100.00;63355.56;5114330;28;20185;-79
2022/06/23 04:06:29;;;;;;;8.13;3.92;;;;;;;-141.50;100.00;63355.56;5131848;28;20136;-79
2022/06/23 04:09:08;;;;;;;9.25;3.83;;;;;;;-141.50;100.00;63355.56;5114136;28;20055;-79
2022/06/23 04:11:52;;;;;;;8.32;4.25;;;;;;;-141.50;100.00;63355.56;5132657;28;20051;-79
2022/06/23 04:14:31;;;;;;;10.85;4.15;;;;;;;-141.50;100.00;63355.56;5115041;28;20079;-79
2022/06/23 04:17:06;;;;;;;8.57;4.43;;;;;;;-141.50;100.00;63355.56;5114555;28;20055;-79
2022/06/23 04:19:34;;;;;;;7.45;3.90;;;;;;;-141.50;100.00;63355.56;5106947;27;20455;-81
2022/06/23 04:22:14;;;;;;;8.95;4.05;;;;;;;-141.50;100.00;63355.56;5128754;27;20055;-77
2022/06/23 04:24:46;;;;;;;7.43;3.92;;;;;;;-141.50;100.00;63355.56;5133181;27;20077;-78
2022/06/23 04:27:27;;;;;;;7.18;3.92;;;;;;;-141.50;100.00;63355.56;5132856;27;20066;-79
2022/06/23 04:29:57;;;;;;;6.40;4.03;;;;;;;-141.50;100.00;63355.56;5131360;27;20047;-78
2022/06/23 04:32:28;;;;;;;9.20;4.80;;;;;;;-141.50;100.00;63355.56;5101584;28;20214;-78
2022/06/23 04:35:17;;;;;;;9.13;4.60;;;;;;;-141.50;100.00;63355.56;5091748;28;20430;-78
2022/06/23 04:38:05;;;;;;;12.30;5.70;;;;;;;-141.50;100.00;63355.56;5091987;28;20067;-78
2022/06/23 04:40:47;;;;;;;13.57;6.25;;;;;;;-141.50;100.00;63355.56;5090911;28;20039;-77
2022/06/23 04:43:29;;;;;;;8.23;5.45;;;;;;;-141.50;100.00;63355.56;5105920;28;20051;-78
2022/06/23 04:46:43;;;;;;;14.10;5.22;;;;;;;-141.50;100.00;63355.56;5090141;28;20047;-78
2022/06/23 04:49:22;;;;;;;7.18;5.63;;;;;;;-141.50;100.00;63355.56;5066136;28;20067;-78
2022/06/23 04:52:04;;;;;;;12.20;6.22;;;;;;;-141.50;100.00;63355.56;5090303;28;20043;-77
2022/06/23 04:54:48;;;;;;;8.93;6.07;;;;;;;-141.50;100.00;63355.56;5103516;28;20143;-77
2022/06/23 04:57:17;;;;;;;13.18;5.90;;;;;;;-141.50;100.00;63355.56;5106394;27;20096;-78
2022/06/23 04:59:49;;;;;;;10.68;5.93;;;;;;;-141.50;100.00;63355.56;5090535;28;20189;-79
2022/06/23 05:02:15;;;;;;;7.68;5.30;;;;;;;-141.50;100.00;63355.56;5092082;28;20052;-78
2022/06/23 05:04:45;;;;;;;9.65;5.20;;;;;;;-141.50;100.00;63355.56;5112524;28;20040;-79
2022/06/23 05:07:27;;;;;;;9.43;4.68;;;;;;;-141.50;100.00;63355.56;5114774;28;20089;-80
2022/06/23 05:10:00;;;;;;;7.85;4.30;;;;;;;-141.50;100.00;63355.56;5112680;28;20043;-81
2022/06/23 05:12:37;;;;;;;6.95;3.88;;;;;;;-141.50;100.00;63355.56;5113724;28;20051;-80
2022/06/23 05:15:05;;;;;;;6.50;4.15;;;;;;;-141.50;100.00;63355.56;5116432;28;20052;-80
2022/06/23 05:17:35;;;;;;;7.72;4.15;;;;;;;-141.50;100.00;63355.56;5116885;28;20056;-80
2022/06/23 05:20:05;;;;;;;8.40;4.05;;;;;;;-141.50;100.00;63355.56;5098127;28;20051;-80
2022/06/23 05:22:37;;;;;;;5.88;3.90;;;;;;;-141.50;100.00;63355.56;5097145;28;20052;-81
2022/06/23 05:25:30;;;;;;;8.93;4.60;;;;;;;-141.50;100.00;63355.56;5109042;28;20055;-80
2022/06/23 05:27:58;;;;;;;7.72;4.60;;;;;;;-141.50;100.00;63355.56;5109675;28;20163;-79
2022/06/23 05:30:29;;;;;;;8.30;4.90;;;;;;;-141.50;100.00;63355.56;5110045;28;20052;-79
2022/06/23 05:33:15;;;;;;;9.68;4.88;;;;;;;-141.50;100.00;63355.56;5109158;28;20078;-79
2022/06/23 05:35:47;;;;;;;9.93;5.03;;;;;;;-141.50;100.00;63355.56;5118267;28;20117;-78
2022/06/23 05:38:30;;;;;;;8.25;4.97;;;;;;;-141.50;100.00;63355.56;5115862;28;20078;-79
2022/06/23 05:41:05;;;;;;;9.77;4.47;;;;;;;-141.50;100.00;63355.56;5101423;28;20063;-79
2022/06/23 05:43:39;;;;;;;9.93;5.15;;;;;;;-141.50;100.00;63355.56;5128542;28;20055;-79
2022/06/23 05:46:07;;;;;;;8.88;4.18;;;;;;;-141.50;100.00;63355.56;5125125;28;20055;-79
2022/06/23 05:48:43;;;;;;;7.93;4.82;;;;;;;-141.50;100.00;63355.56;5107732;28;20051;-79
2022/06/23 05:51:10;;;;;;;10.18;4.32;;;;;;;-141.50;100.00;63355.56;5109097;28;20047;-80
2022/06/23 05:53:49;;;;;;;8.35;4.75;;;;;;;-141.50;100.00;63355.56;5113098;28;20054;-79
2022/06/23 05:56:45;;;;;;;11.60;4.10;;;;;;;-141.50;100.00;63355.56;5117430;28;20091;-78
2022/06/23 05:59:15;;;;;;;13.45;4.15;;;;;;;-141.50;100.00;63355.56;5093292;28;20059;-80
2022/06/23 06:02:06;;;;;;;8.98;3.95;;;;;;;-141.50;100.00;63355.56;5112634;28;20048;-80
2022/06/23 06:04:51;;;;;;;11.88;3.53;;;;;;;-141.50;100.00;63355.56;5108065;28;20280;-80
2022/06/23 06:07:22;;;;;;;15.20;4.00;;;;;;;-141.50;100.00;63355.56;5124383;28;20543;-80
2022/06/23 06:09:50;;;;;;;9.30;4.13;;;;;;;-141.50;100.00;63355.56;5103947;28;20051;-79
2022/06/23 06:12:40;;;;;;;6.53;3.53;;;;;;;-141.50;100.00;63355.56;5124308;28;20113;-80
2022/06/23 06:15:31;;;;;;;10.77;3.17;;;;;;;-141.50;100.00;63355.56;5103572;28;20055;-78
2022/06/23 06:20:57;;;;;;;8.80;3.03;;;;;;;-141.50;100.00;63355.56;5000547;28;20097;-79
2022/06/23 06:24:02;;;;;;;7.03;3.00;;;;;;;-141.50;100.00;63355.56;5006673;28;20129;-81
2022/06/23 06:26:47;;;;;;;8.40;3.05;;;;;;;-141.50;100.00;63355.56;4974277;23;20261;-86
2022/06/23 06:29:19;;;;;;;7.80;2.92;;;;;;;-141.50;100.00;63355.56;5078866;28;20040;-86
2022/06/23 06:31:55;;;;;;;6.13;2.45;;;;;;;-141.50;100.00;63355.56;5081400;28;20048;-85
2022/06/23 06:34:36;;;;;;;12.27;3.25;;;;;;;-141.50;100.00;63355.56;5064970;28;20510;-85
2022/06/23 06:37:07;;;;;;;10.27;2.75;;;;;;;-141.50;100.00;63355.56;5086404;28;20056;-85
2022/06/23 06:39:38;;;;;;;8.73;3.40;;;;;;;-141.50;100.00;63355.56;5090652;28;20059;-87
2022/06/23 06:42:09;;;;;;;13.32;3.63;;;;;;;-141.50;100.00;63355.56;5090881;28;20052;-85
2022/06/23 06:44:42;;;;;;;16.35;6.00;;;;;;;-141.50;100.00;63355.56;5074006;28;20052;-86
2022/06/23 06:47:17;;;;;;;8.15;2.90;;;;;;;-141.50;100.00;63355.56;5085704;28;20112;-86
2022/06/23 06:49:45;;;;;;;6.60;2.58;;;;;;;-141.50;100.00;63355.56;5072211;28;20052;-87
2022/06/23 06:52:12;;;;;;;7.22;2.53;;;;;;;-141.50;100.00;63355.56;5074636;28;20055;-85
2022/06/23 06:54:55;;;;;;;8.52;2.10;;;;;;;-141.50;100.00;63355.56;5092812;28;20048;-86
2022/06/23 06:57:43;;;;;;;6.93;2.40;;;;;;;-141.50;100.00;63355.56;5065939;28;20044;-85
2022/06/23 07:00:21;;;;;;;7.95;2.60;;;;;;;-141.50;100.00;63355.56;5083328;28;20061;-85
2022/06/23 07:02:55;;;;;;;10.23;2.53;;;;;;;-141.50;100.00;63355.56;5064513;28;20056;-86
2022/06/23 07:05:34;;;;;;;12.48;2.38;;;;;;;-141.50;100.00;63355.56;5063445;28;20109;-86
2022/06/23 07:08:09;;;;;;;9.48;2.50;;;;;;;-141.50;100.00;63355.56;5080723;28;20052;-86
2022/06/23 07:10:43;;;;;;;9.60;3.60;;;;;;;-141.50;100.00;63355.56;5083512;28;20041;-86
2022/06/23 07:13:35;;;;;;;9.60;2.85;;;;;;;-141.50;100.00;63355.56;5065349;28;20052;-85
2022/06/23 07:16:19;;;;;;;8.82;2.72;;;;;;;-141.50;100.00;63355.56;5085728;28;20048;-85
2022/06/23 07:18:55;;;;;;;7.75;2.85;;;;;;;-141.50;100.00;63355.56;5083382;28;20108;-84
2022/06/23 07:21:34;;;;;;;6.88;2.25;;;;;;;-141.50;100.00;63355.56;5075501;28;20068;-84
2022/06/23 07:24:17;;;;;;;10.70;2.55;;;;;;;-141.50;100.00;63355.56;5073945;28;20135;-84
2022/06/23 07:27:02;;;;;;;6.75;2.50;;;;;;;-141.50;100.00;63355.56;5056533;28;20098;-85
2022/06/23 07:29:40;;;;;;;5.90;2.10;;;;;;;-141.50;100.00;63355.56;5074223;28;20073;-85
2022/06/23 07:32:29;;;;;;;4.25;2.13;;;;;;;-141.50;100.00;63355.56;5074880;28;20132;-86
2022/06/23 07:35:26;;;;;;;3.90;1.90;;;;;;;-141.50;100.00;63355.56;5073790;28;20097;-87
2022/06/23 07:38:30;;;;;;;3.63;2.05;;;;;;;-141.50;100.00;63355.56;5055150;28;20517;-85
2022/06/23 07:41:01;;;;;;;9.63;1.98;;;;;;;-141.50;100.00;63355.56;5061148;28;20087;-85
2022/06/23 07:43:33;;;;;;;4.80;1.80;;;;;;;-141.50;100.00;63355.56;5060576;28;20473;-86
2022/06/23 07:46:01;;;;;;;5.38;1.75;;;;;;;-141.50;100.00;63355.56;5080776;28;20139;-84
2022/06/23 07:48:32;;;;;;;7.78;2.30;;;;;;;-141.50;100.00;63355.56;5071043;28;20040;-88
2022/06/23 07:51:02;;;;;;;5.60;2.10;;;;;;;-141.50;100.00;63355.56;5095762;28;20040;-85
2022/06/23 07:53:35;;;;;;;7.97;2.15;;;;;;;-141.50;100.00;63355.56;5096172;28;20029;-88
2022/06/23 07:56:04;;;;;;;5.88;1.90;;;;;;;-141.50;100.00;63355.56;5095993;28;20044;-86
2022/06/23 07:58:32;;;;;;;8.25;2.00;;;;;;;-141.50;100.00;63355.56;5078121;28;20300;-84
2022/06/23 08:01:08;;;;;;;5.13;1.80;;;;;;;-141.50;100.00;63355.56;5093754;28;20263;-87
2022/06/23 08:04:14;;;;;;;5.03;1.80;;;;;;;-141.50;100.00;63355.56;5084278;28;20110;-86
2022/06/23 08:06:41;;;;;;;7.28;1.83;;;;;;;-141.50;100.00;63355.56;5045538;28;20076;-86
2022/06/23 08:09:28;;;;;;;3.90;1.92;;;;;;;-141.50;100.00;63355.56;5083568;28;20079;-86
2022/06/23 08:14:49;;;;;;;5.88;2.05;;;;;;;-141.50;100.00;63355.56;5083139;28;20051;-84
2022/06/23 08:17:17;;;;;;;6.15;2.08;;;;;;;-141.50;100.00;63355.56;5063868;28;20055;-85
2022/06/23 08:19:56;;;;;;;2.97;1.80;;;;;;;-141.50;100.00;63355.56;5080515;28;20040;-85
2022/06/23 08:22:32;;;;;;;4.18;1.73;;;;;;;-141.50;100.00;63355.56;5071277;28;20094;-85
2022/06/23 08:25:05;;;;;;;6.05;1.90;;;;;;;-141.50;100.00;63355.56;5073930;28;20048;-82
2022/06/23 08:27:52;;;;;;;7.20;1.80;;;;;;;-141.50;100.00;63355.56;5067303;28;20050;-84
2022/06/23 08:30:22;;;;;;;7.13;2.00;;;;;;;-141.50;100.00;63355.56;5089789;28;20109;-90
2022/06/23 08:32:52;;;;;;;8.85;1.85;;;;;;;-141.50;100.00;63355.56;5069660;28;20076;-85
2022/06/23 08:35:43;;;;;;;4.35;1.60;;;;;;;-141.50;100.00;63355.56;5068927;28;20064;-86
2022/06/23 08:38:25;;;;;;;7.60;1.65;;;;;;;-141.50;100.00;63355.56;5071636;28;20059;-84
2022/06/23 08:41:16;;;;;;;7.03;1.95;;;;;;;-141.50;100.00;63355.56;5068575;28;20048;-85
2022/06/23 08:44:03;;;;;;;6.00;1.58;;;;;;;-141.50;100.00;63355.56;5069257;28;20052;-89
2022/06/23 08:46:46;;;;;;;2.97;1.48;;;;;;;-141.50;100.00;63355.56;5089710;28;20044;-85
2022/06/23 08:49:24;;;;;;;6.50;1.88;;;;;;;-141.50;100.00;63355.56;5068163;28;20053;-88
2022/06/23 08:52:27;;;;;;;9.15;1.58;;;;;;;-141.50;100.00;63355.56;5084691;28;20045;-87
2022/06/23 08:54:58;;;;;;;4.70;1.77;;;;;;;-141.50;100.00;63355.56;5083716;28;20122;-88
2022/06/23 08:57:34;;;;;;;6.10;1.90;;;;;;;-141.50;100.00;63355.56;5083710;28;20059;-85
2022/06/23 09:00:20;;;;;;;4.55;1.77;;;;;;;-141.50;100.00;63355.56;5082589;28;20052;-86
2022/06/23 09:02:56;;;;;;;5.72;1.88;;;;;;;-141.50;100.00;63355.56;5081931;28;20469;-85
2022/06/23 09:05:43;;;;;;;5.82;1.80;;;;;;;-141.50;100.00;63355.56;5065254;28;20044;-86
2022/06/23 09:08:29;;;;;;;6.17;2.00;;;;;;;-141.50;100.00;63355.56;5066650;28;20062;-86
2022/06/23 09:11:19;;;;;;;8.02;1.98;;;;;;;-141.50;100.00;63355.56;5080561;28;20358;-85
2022/06/23 09:13:45;;;;;;;3.35;1.75;;;;;;;-141.50;100.00;63355.56;5063226;28;20063;-87
2022/06/23 09:16:30;;;;;;;8.18;1.58;;;;;;;-141.50;100.00;63355.56;5078734;28;20048;-85
2022/06/23 09:19:19;;;;;;;2.47;1.60;;;;;;;-141.50;100.00;63355.56;5076827;28;20064;-84
2022/06/23 09:22:11;;;;;;;8.43;2.00;;;;;;;-141.50;100.00;63355.56;5035376;28;20045;-84
2022/06/23 09:24:41;;;;;;;4.20;2.50;;;;;;;-141.50;100.00;63355.56;5036834;28;20072;-84
2022/06/23 09:27:25;;;;;;;4.72;1.77;;;;;;;-141.50;100.00;63355.56;5035649;28;20073;-86
2022/06/23 09:30:00;;;;;;;2.28;1.58;;;;;;;-141.50;100.00;63355.56;5054427;28;20056;-85
2022/06/23 09:32:48;;;;;;;3.72;1.50;;;;;;;-141.50;100.00;63355.56;5038117;28;20048;-84
2022/06/23 09:35:50;;;;;;;5.13;1.80;;;;;;;-141.50;100.00;63355.56;5056180;28;20084;-87
2022/06/23 09:38:38;;;;;;;5.57;1.60;;;;;;;-141.50;100.00;63355.56;5055951;28;20053;-82
2022/06/23 09:41:24;;;;;;;3.42;1.60;;;;;;;-141.50;100.00;63355.56;5056081;28;20056;-85
2022/06/23 09:44:26;;;;;;;4.28;1.75;;;;;;;-141.50;100.00;63355.56;5035065;28;20076;-83
2022/06/23 09:47:11;;;;;;;6.13;1.50;;;;;;;-141.50;100.00;63355.56;5051962;28;20558;-84
2022/06/23 09:50:05;;;;;;;4.07;1.60;;;;;;;-141.50;100.00;63355.56;5033946;28;20425;-85
2022/06/23 09:53:05;;;;;;;4.07;1.92;;;;;;;-141.50;100.00;63355.56;5052177;28;20041;-87
2022/06/23 09:55:37;;;;;;;6.22;1.95;;;;;;;-141.50;100.00;63355.56;5054341;28;20087;-84
2022/06/23 09:58:35;;;;;;;6.60;1.70;;;;;;;-141.50;100.00;63355.56;5054893;28;20057;-86
2022/06/23 10:01:20;;;;;;;6.03;2.10;;;;;;;-141.50;100.00;63355.56;5055312;28;20045;-86
2022/06/23 10:03:53;;;;;;;5.72;1.70;;;;;;;-141.50;100.00;63355.56;5037048;28;20048;-84
2022/06/23 10:06:32;;;;;;;4.03;1.77;;;;;;;-141.50;100.00;63355.56;5036237;28;20087;-85
2022/06/23 10:09:23;;;;;;;7.32;1.70;;;;;;;-141.50;100.00;63355.56;5039484;28;20048;-84
2022/06/23 10:12:10;;;;;;;2.80;1.50;;;;;;;-141.50;100.00;63355.56;5040727;28;20080;-86
2022/06/23 10:15:05;;;;;;;5.38;1.77;;;;;;;-141.50;100.00;63355.56;5060653;28;20112;-87
2022/06/23 10:17:44;;;;;;;2.92;1.80;;;;;;;-141.50;100.00;63355.56;5061056;28;20094;-86
2022/06/23 10:20:29;;;;;;;5.03;2.28;;;;;;;-141.50;100.00;63355.56;5069575;28;20135;-85
2022/06/23 10:23:02;;;;;;;6.13;1.85;;;;;;;-141.50;100.00;63355.56;5052160;28;20516;-87
2022/06/23 10:25:56;;;;;;;5.18;1.80;;;;;;;-141.50;100.00;63355.56;5070580;28;20388;-85
2022/06/23 10:28:23;;;;;;;5.18;1.55;;;;;;;-141.50;100.00;63355.56;5069720;28;20497;-85
2022/06/23 10:30:55;;;;;;;6.43;1.70;;;;;;;-141.50;100.00;63355.56;5073979;28;20131;-87
2022/06/23 10:33:44;;;;;;;6.65;1.73;;;;;;;-141.50;100.00;63355.56;5057957;28;20064;-87
2022/06/23 10:36:32;;;;;;;5.72;1.67;;;;;;;-141.50;100.00;63355.56;5075262;28;20492;-85
2022/06/23 10:39:24;;;;;;;5.68;1.90;;;;;;;-141.50;100.00;63355.56;5079153;28;20356;-84
2022/06/23 10:42:11;;;;;;;5.95;1.80;;;;;;;-141.50;100.00;63355.56;5082793;28;20045;-87
2022/06/23 10:44:59;;;;;;;2.80;1.92;;;;;;;-141.50;100.00;63355.56;5082666;28;20071;-86
2022/06/23 10:48:03;;;;;;;5.03;2.10;;;;;;;-141.50;100.00;63355.56;5073838;28;20127;-87
2022/06/23 10:50:40;;;;;;;9.32;1.98;;;;;;;-141.50;100.00;63355.56;5057420;28;20060;-83
2022/06/23 10:53:54;;;;;;;4.70;1.88;;;;;;;-141.50;100.00;63355.56;5073850;28;20061;-83
2022/06/23 10:56:41;;;;;;;3.40;1.88;;;;;;;-141.50;100.00;63355.56;5061003;28;20044;-86
2022/06/23 10:59:20;;;;;;;6.30;1.70;;;;;;;-141.50;100.00;63355.56;5078292;28;20056;-85
2022/06/23 11:02:09;;;;;;;6.43;1.80;;;;;;;-141.50;100.00;63355.56;5079546;28;20076;-86
2022/06/23 11:04:47;;;;;;;3.08;2.03;;;;;;;-141.50;100.00;63355.56;5077952;28;20040;-84
2022/06/23 11:07:28;;;;;;;5.28;2.10;;;;;;;-141.50;100.00;63355.56;5080046;28;20043;-86
2022/06/23 11:10:24;;;;;;;3.63;1.70;;;;;;;-141.50;100.00;63355.56;5096573;28;20067;-88
2022/06/23 11:13:09;;;;;;;4.78;1.92;;;;;;;-141.50;100.00;63355.56;5095640;28;20063;-87
2022/06/23 11:15:56;;;;;;;4.15;1.83;;;;;;;-141.50;100.00;63355.56;5088870;28;20055;-87
2022/06/23 11:18:26;;;;;;;5.13;2.25;;;;;;;-141.50;100.00;63355.56;5062942;28;20147;-85
2022/06/23 11:21:14;;;;;;;2.88;1.90;;;;;;;-141.50;100.00;63355.56;5063487;28;20113;-85
2022/06/23 11:24:24;;;;;;;2.78;1.95;;;;;;;-141.50;100.00;63355.56;5059577;28;20080;-86
2022/06/23 11:27:28;;;;;;;4.30;1.88;;;;;;;-141.50;100.00;63355.56;5080666;28;20044;-86
2022/06/23 11:30:04;;;;;;;4.53;1.70;;;;;;;-141.50;100.00;63355.56;5063357;28;20459;-84
2022/06/23 11:32:42;;;;;;;2.55;1.70;;;;;;;-141.50;100.00;63355.56;5061769;28;20117;-85
2022/06/23 11:35:18;;;;;;;6.32;2.10;;;;;;;-141.50;100.00;63355.56;5079866;28;20057;-85
2022/06/23 11:38:00;;;;;;;5.05;2.00;;;;;;;-141.50;100.00;63355.56;5080042;28;20055;-83
2022/06/23 11:40:42;;;;;;;4.03;2.03;;;;;;;-141.50;100.00;63355.56;5076324;28;20056;-83
2022/06/23 11:43:22;;;;;;;3.55;2.00;;;;;;;-141.50;100.00;63355.56;5076119;28;20444;-86
2022/06/23 11:46:02;;;;;;;4.35;1.83;;;;;;;-141.50;100.00;63355.56;5059748;28;20056;-87
2022/06/23 11:48:56;;;;;;;4.80;2.10;;;;;;;-141.50;100.00;63355.56;5082664;28;20057;-89
2022/06/23 11:51:50;;;;;;;4.83;1.93;;;;;;;-141.50;100.00;63355.56;5078311;28;20056;-85
2022/06/23 11:54:22;;;;;;;6.05;1.90;;;;;;;-141.50;100.00;63355.56;5077412;28;20080;-85
2022/06/23 11:57:30;;;;;;;2.45;1.60;;;;;;;-141.50;100.00;63355.56;5075341;28;20083;-87
2022/06/23 12:00:03;;;;;;;5.72;1.80;;;;;;;-141.50;100.00;63355.56;5079936;28;20362;-86
2022/06/23 12:03:12;;;;;;;4.85;1.70;;;;;;;-141.50;100.00;63355.56;5080537;28;20052;-85
2022/06/23 12:05:45;;;;;;;5.15;1.77;;;;;;;-141.50;100.00;63355.56;5065187;28;20056;-83
2022/06/23 12:08:41;;;;;;;4.45;2.05;;;;;;;-141.50;100.00;63355.56;5083056;28;20154;-83
2022/06/23 12:11:08;;;;;;;5.80;2.03;;;;;;;-141.50;100.00;63355.56;5065943;28;20533;-85
2022/06/23 12:13:37;;;;;;;3.25;2.15;;;;;;;-141.50;100.00;63355.56;5065686;28;20087;-86
2022/06/23 12:16:07;;;;;;;3.70;1.92;;;;;;;-141.50;100.00;63355.56;5082022;28;20052;-85
2022/06/23 12:18:40;;;;;;;3.10;1.85;;;;;;;-141.50;100.00;63355.56;5062966;28;20121;-88